Terminal Aerodrome Forecast
Issued by NWS Portland, OR

Home | Current Version | Previous Version | Text Only | Print | Product List | Glossary On
Versions: 1 2 3 4 5 6 7 8 9 10 11 12 13 14 15 16 17 18 19 20 21 22 23 24 25 26 27 28 29 30 31 32 33 34 35
000
FTUS46 KPQR 010543
TAFEUG
TAF
KEUG 010543Z 0106/0206 36005KT 1SM BR OVC003
     FM010800 18003KT 1/2SM FG VV002
     FM011600 18005KT 2SM -RA BR BKN002 OVC012
     FM011900 21006KT 5SM -RA BR SCT012 BKN025 OVC040
     FM012300 20008G15KT P6SM -SHRA SCT015 BKN025 OVC040
     FM020400 16005KT 4SM BR BKN020 OVC040=

USA.gov is the U.S. government's official web portal to all federal, state and local government web resources and services.